Time;durP1;ratioP1;P1;durP2;ratioP2;P2;SDS_P1;SDS_P2;PMS_P1;PMS_P2;Temp;Humidity;BMP_temperature;BMP_pressure;BME280_temperature;BME280_humidity;BME280_pressure;Samples;Min_cycle;Max_cycle;Signal;HPM_P1;HPM_P2
2023/08/13 00:02:38;;;;;;;6.73;3.30;;;23.20;99.90;;;;;;2603372;54;20132;31
2023/08/13 00:05:14;;;;;;;8.23;3.10;;;23.20;99.90;;;;;;2606183;47;20089;31
2023/08/13 00:07:55;;;;;;;6.50;2.60;;;23.10;99.90;;;;;;2622274;46;20778;31
2023/08/13 00:10:30;;;;;;;3.90;2.78;;;23.10;99.90;;;;;;2603781;54;20112;31
2023/08/13 00:13:07;;;;;;;4.00;3.50;;;23.10;99.90;;;;;;2603816;54;20019;31
2023/08/13 00:15:43;;;;;;;5.70;3.20;;;23.10;99.90;;;;;;2702229;39;21467;31
2023/08/13 00:18:19;;;;;;;8.65;3.40;;;23.10;99.90;;;;;;2603786;54;20782;31
2023/08/13 00:20:55;;;;;;;6.10;3.00;;;23.10;99.90;;;;;;2603988;54;21449;31
2023/08/13 00:23:32;;;;;;;6.20;3.00;;;23.00;99.90;;;;;;2604114;54;20030;31
2023/08/13 00:26:10;;;;;;;5.35;2.53;;;23.00;99.90;;;;;;2603772;54;20104;31
2023/08/13 00:28:47;;;;;;;4.65;2.47;;;23.00;99.90;;;;;;2603759;54;20064;31
2023/08/13 00:31:22;;;;;;;4.20;2.85;;;22.90;99.90;;;;;;2603891;54;20875;31
2023/08/13 00:33:59;;;;;;;3.20;2.70;;;22.90;99.90;;;;;;2603516;54;20026;31
2023/08/13 00:36:34;;;;;;;3.88;3.20;;;22.90;99.90;;;;;;2603819;54;20018;31
2023/08/13 00:39:15;;;;;;;3.22;2.45;;;22.90;99.90;;;;;;2604032;54;21518;31
2023/08/13 00:41:52;;;;;;;4.82;2.15;;;22.90;99.90;;;;;;2603944;54;21500;31
2023/08/13 00:44:31;;;;;;;6.10;2.60;;;22.90;99.90;;;;;;2622472;46;20042;31
2023/08/13 00:47:07;;;;;;;7.50;2.60;;;22.80;99.90;;;;;;2603786;54;20104;31
2023/08/13 00:49:43;;;;;;;3.63;2.67;;;22.90;99.90;;;;;;2622453;46;20037;31
2023/08/13 00:52:20;;;;;;;9.32;2.67;;;22.90;99.90;;;;;;2603485;54;20029;31
2023/08/13 00:54:59;;;;;;;5.97;2.80;;;22.90;99.90;;;;;;2702409;39;21433;31
2023/08/13 00:57:34;;;;;;;3.10;2.42;;;22.80;99.90;;;;;;2603876;54;20883;31
2023/08/13 01:00:12;;;;;;;5.53;2.63;;;22.80;99.90;;;;;;2603607;54;20784;31
2023/08/13 01:02:51;;;;;;;3.28;2.70;;;22.80;99.90;;;;;;2603633;54;20031;31
2023/08/13 01:05:30;;;;;;;4.07;2.67;;;22.80;99.90;;;;;;2603687;54;20030;31
2023/08/13 01:08:10;;;;;;;3.30;2.67;;;22.80;99.90;;;;;;2603076;54;20246;31
2023/08/13 01:10:51;;;;;;;4.15;2.83;;;22.80;99.90;;;;;;2603822;54;20030;31
2023/08/13 01:13:30;;;;;;;3.70;2.40;;;22.80;99.90;;;;;;2603665;54;20085;31
2023/08/13 01:16:06;;;;;;;4.32;2.42;;;22.80;99.90;;;;;;2603590;54;20022;31
2023/08/13 01:18:46;;;;;;;8.10;2.72;;;22.80;99.90;;;;;;2603480;54;20038;31
2023/08/13 01:21:21;;;;;;;4.45;2.70;;;22.80;99.90;;;;;;2603842;54;20046;31
2023/08/13 01:24:00;;;;;;;6.25;2.40;;;22.80;99.90;;;;;;2603496;54;20175;31
2023/08/13 01:26:40;;;;;;;7.80;2.95;;;22.80;99.90;;;;;;2603644;54;20065;31
2023/08/13 01:29:21;;;;;;;5.25;2.50;;;22.80;99.90;;;;;;2622038;46;20113;31
2023/08/13 01:31:57;;;;;;;7.47;2.67;;;22.80;99.90;;;;;;2608266;46;20050;31
2023/08/13 01:34:31;;;;;;;6.72;2.63;;;22.80;99.90;;;;;;2603568;54;20052;31
2023/08/13 01:37:08;;;;;;;5.68;2.35;;;22.70;99.90;;;;;;2603306;54;20030;31
2023/08/13 01:39:48;;;;;;;4.95;2.78;;;22.70;99.90;;;;;;2603587;54;20044;31
2023/08/13 01:42:23;;;;;;;7.10;2.42;;;22.70;99.90;;;;;;2603613;54;20022;31
2023/08/13 01:45:01;;;;;;;6.53;3.17;;;22.70;99.90;;;;;;2702084;39;21614;31
2023/08/13 01:47:39;;;;;;;8.30;2.83;;;22.60;99.90;;;;;;2603331;54;20886;31
2023/08/13 01:50:17;;;;;;;4.10;2.85;;;22.60;99.90;;;;;;2603710;54;20065;31
2023/08/13 01:52:53;;;;;;;5.07;2.50;;;22.50;99.90;;;;;;2603494;54;20037;31
2023/08/13 01:55:34;;;;;;;5.60;3.22;;;22.50;99.90;;;;;;2622283;46;20806;31
2023/08/13 01:58:10;;;;;;;3.70;2.75;;;22.40;99.90;;;;;;2603659;54;20816;31
2023/08/13 02:00:47;;;;;;;4.88;3.10;;;22.40;99.90;;;;;;2603729;54;20785;31
2023/08/13 02:03:23;;;;;;;6.13;2.93;;;22.40;99.90;;;;;;2622168;46;20030;31
2023/08/13 02:05:58;;;;;;;5.37;2.90;;;22.40;99.90;;;;;;2603331;54;20023;31
2023/08/13 02:08:37;;;;;;;3.95;2.45;;;22.30;99.90;;;;;;2603588;54;21528;31
2023/08/13 02:11:15;;;;;;;6.05;2.95;;;22.30;99.90;;;;;;2603218;46;20041;31
2023/08/13 02:13:50;;;;;;;3.53;2.85;;;22.30;99.90;;;;;;2604193;46;20940;31
2023/08/13 02:16:28;;;;;;;5.93;3.35;;;22.20;99.90;;;;;;2603367;54;20034;31
2023/08/13 02:19:06;;;;;;;4.10;3.20;;;22.20;99.90;;;;;;2622279;46;20064;31
2023/08/13 02:21:42;;;;;;;5.70;3.10;;;22.10;99.90;;;;;;2603651;54;24079;31
2023/08/13 02:24:18;;;;;;;8.38;3.17;;;22.00;99.90;;;;;;2603453;54;20557;31
2023/08/13 02:26:57;;;;;;;5.15;2.75;;;22.00;99.90;;;;;;2603285;54;19961;31
2023/08/13 02:29:39;;;;;;;5.50;3.10;;;21.90;99.90;;;;;;2603284;54;20083;31
2023/08/13 02:32:14;;;;;;;4.53;2.95;;;21.90;99.90;;;;;;2603466;54;20951;31
2023/08/13 02:34:51;;;;;;;8.50;3.15;;;21.90;99.90;;;;;;2604187;46;20026;31
2023/08/13 02:37:28;;;;;;;4.65;2.70;;;21.80;99.90;;;;;;2603633;54;20042;31
2023/08/13 02:40:09;;;;;;;3.97;3.38;;;21.70;99.90;;;;;;2604101;46;20071;31
2023/08/13 02:42:48;;;;;;;3.90;3.00;;;21.70;99.90;;;;;;2602573;54;20026;31
2023/08/13 02:45:25;;;;;;;4.20;3.00;;;21.70;99.90;;;;;;2603427;54;20026;31
2023/08/13 02:48:01;;;;;;;4.53;3.15;;;21.70;99.90;;;;;;2603109;54;20030;31
2023/08/13 02:50:37;;;;;;;9.63;3.55;;;21.70;99.90;;;;;;2608584;46;20026;31
2023/08/13 02:53:15;;;;;;;3.25;2.75;;;21.70;99.90;;;;;;2603392;46;20116;31
2023/08/13 02:55:51;;;;;;;4.70;3.30;;;21.70;99.90;;;;;;2603280;54;20111;31
2023/08/13 02:58:25;;;;;;;5.70;3.38;;;21.70;99.90;;;;;;2603313;54;20919;31
2023/08/13 03:01:05;;;;;;;6.80;3.45;;;21.70;99.90;;;;;;2603554;54;20894;31
2023/08/13 03:03:48;;;;;;;6.85;2.97;;;21.70;99.90;;;;;;2602801;54;20023;31
2023/08/13 03:06:27;;;;;;;5.47;3.10;;;21.60;99.90;;;;;;2621751;46;20081;31
2023/08/13 03:09:02;;;;;;;7.27;3.10;;;21.60;99.90;;;;;;2602564;54;21122;31
2023/08/13 03:11:39;;;;;;;8.48;2.95;;;21.60;99.90;;;;;;2603431;54;20123;31
2023/08/13 03:14:18;;;;;;;4.30;3.10;;;21.60;99.90;;;;;;2603242;54;20023;31
2023/08/13 03:17:00;;;;;;;4.03;2.47;;;21.70;99.90;;;;;;2603074;54;20046;31
2023/08/13 03:19:36;;;;;;;4.45;3.10;;;21.70;99.90;;;;;;2603379;54;20121;31
2023/08/13 03:22:14;;;;;;;3.07;2.53;;;21.70;99.90;;;;;;2603080;54;20580;31
2023/08/13 03:24:55;;;;;;;5.03;2.80;;;21.60;99.90;;;;;;2603193;54;20022;31
2023/08/13 03:27:31;;;;;;;5.40;3.10;;;21.70;99.90;;;;;;2603367;54;20046;31
2023/08/13 03:30:08;;;;;;;6.97;3.45;;;21.60;99.90;;;;;;2701607;39;20532;31
2023/08/13 03:32:46;;;;;;;5.88;2.88;;;21.60;99.90;;;;;;2603264;54;20030;31
2023/08/13 03:35:28;;;;;;;5.55;3.17;;;21.60;99.90;;;;;;2603264;54;20023;31
2023/08/13 03:38:06;;;;;;;5.67;2.57;;;21.60;99.90;;;;;;2773187;31;20588;31
2023/08/13 03:40:41;;;;;;;5.13;3.00;;;21.60;99.90;;;;;;2603485;54;20281;31
2023/08/13 03:43:18;;;;;;;3.63;2.60;;;21.60;99.90;;;;;;2703515;39;21411;31
2023/08/13 03:45:53;;;;;;;2.87;2.33;;;21.60;99.90;;;;;;2604801;54;20042;31
2023/08/13 03:48:31;;;;;;;5.27;2.90;;;21.70;99.90;;;;;;2604910;54;20908;31
2023/08/13 03:51:10;;;;;;;4.60;2.60;;;21.70;99.90;;;;;;2604188;54;20904;31
2023/08/13 03:53:47;;;;;;;4.23;2.80;;;21.70;99.90;;;;;;2604183;54;20041;31
2023/08/13 03:56:25;;;;;;;3.38;2.83;;;21.60;99.90;;;;;;2604854;54;20022;31
2023/08/13 03:59:02;;;;;;;2.92;2.30;;;21.70;99.90;;;;;;2604927;54;20018;31
2023/08/13 04:01:39;;;;;;;4.88;2.55;;;21.70;99.90;;;;;;2611415;46;20080;31
2023/08/13 04:04:17;;;;;;;;;;;21.80;99.90;;;;;;2605048;54;20026;31
2023/08/13 04:07:01;;;;;;;3.08;2.70;;;21.80;99.90;;;;;;2605146;54;19943;31
2023/08/13 04:09:36;;;;;;;4.72;2.70;;;21.80;99.90;;;;;;2604805;54;20018;31
2023/08/13 04:12:12;;;;;;;3.78;2.10;;;21.90;99.90;;;;;;2604731;54;20026;31
2023/08/13 04:14:52;;;;;;;4.53;2.80;;;21.90;99.90;;;;;;2604781;54;20882;31
2023/08/13 04:17:28;;;;;;;4.40;2.85;;;22.00;99.90;;;;;;2604868;54;20038;31
2023/08/13 04:20:12;;;;;;;7.03;3.17;;;22.10;99.90;;;;;;2608494;46;20050;31
2023/08/13 04:22:47;;;;;;;4.60;2.70;;;22.20;99.90;;;;;;2605022;54;20030;31
2023/08/13 04:25:25;;;;;;;5.17;2.30;;;22.30;99.90;;;;;;2604513;54;20802;31
2023/08/13 04:28:01;;;;;;;3.10;2.22;;;22.30;99.90;;;;;;2623167;46;20028;31
2023/08/13 04:30:42;;;;;;;3.45;2.33;;;22.40;99.90;;;;;;2623603;46;20903;31
2023/08/13 04:33:19;;;;;;;5.50;2.47;;;22.40;99.90;;;;;;2698405;39;20132;31
2023/08/13 04:35:57;;;;;;;7.85;2.45;;;22.50;99.90;;;;;;2604695;54;20871;31
2023/08/13 04:38:42;;;;;;;4.88;2.70;;;22.70;99.90;;;;;;2605001;54;20845;31
2023/08/13 04:41:18;;;;;;;5.72;2.28;;;22.90;99.90;;;;;;2604683;54;20949;31
2023/08/13 04:43:57;;;;;;;5.45;2.15;;;23.00;99.90;;;;;;2623107;46;20647;31
2023/08/13 04:46:32;;;;;;;5.00;2.40;;;23.00;99.90;;;;;;2604443;54;20940;31
2023/08/13 04:49:06;;;;;;;4.22;3.03;;;23.00;99.90;;;;;;2604660;54;20085;31
2023/08/13 04:51:44;;;;;;;5.50;2.60;;;23.00;99.90;;;;;;2607139;46;20872;31
2023/08/13 04:54:25;;;;;;;4.40;2.28;;;23.00;99.90;;;;;;2622124;47;20104;31
2023/08/13 04:57:00;;;;;;;4.07;2.53;;;23.00;99.90;;;;;;2603614;54;20550;31
2023/08/13 04:59:38;;;;;;;6.18;2.60;;;22.90;99.90;;;;;;2603804;54;20499;31
2023/08/13 05:02:15;;;;;;;3.33;2.28;;;23.00;99.90;;;;;;2603739;54;20797;31
2023/08/13 05:04:54;;;;;;;4.60;2.40;;;23.00;99.90;;;;;;2603609;54;20810;31
2023/08/13 05:07:33;;;;;;;4.40;1.95;;;23.20;99.90;;;;;;2603635;54;20027;31
2023/08/13 05:10:14;;;;;;;3.58;2.20;;;23.40;99.90;;;;;;2603817;54;20034;31
2023/08/13 05:12:48;;;;;;;4.15;2.50;;;23.60;99.90;;;;;;2603689;54;20045;31
2023/08/13 05:15:27;;;;;;;5.18;2.50;;;23.70;99.90;;;;;;2701449;39;21497;31
2023/08/13 05:18:02;;;;;;;3.15;2.20;;;23.60;99.90;;;;;;2603046;54;20031;31
2023/08/13 05:20:38;;;;;;;5.53;3.03;;;23.60;99.90;;;;;;2621895;46;20089;31
2023/08/13 05:23:13;;;;;;;6.82;2.08;;;23.50;99.90;;;;;;2603604;54;20922;31
2023/08/13 05:25:50;;;;;;;4.18;2.50;;;23.50;99.90;;;;;;2603606;54;20053;31
2023/08/13 05:28:27;;;;;;;3.65;2.45;;;23.40;99.90;;;;;;2603726;54;20026;31
2023/08/13 05:31:06;;;;;;;4.75;2.60;;;23.40;99.90;;;;;;2603720;54;20038;31
2023/08/13 05:33:38;;;;;;;5.63;2.58;;;23.60;99.90;;;;;;2603866;54;20758;31
2023/08/13 05:36:21;;;;;;;6.17;2.87;;;23.80;99.90;;;;;;2602818;54;20085;31
2023/08/13 05:38:56;;;;;;;4.18;2.30;;;24.00;99.90;;;;;;2603639;54;20132;31
2023/08/13 05:41:32;;;;;;;4.97;2.58;;;24.10;99.90;;;;;;2604085;46;20875;31
2023/08/13 05:44:08;;;;;;;4.93;2.35;;;24.00;99.90;;;;;;2602777;54;20919;31
2023/08/13 05:46:44;;;;;;;3.75;2.10;;;24.10;99.90;;;;;;2609997;39;20923;31
2023/08/13 05:49:19;;;;;;;2.50;2.20;;;24.20;99.90;;;;;;2603548;54;20044;31
2023/08/13 05:51:56;;;;;;;4.87;2.37;;;24.20;99.90;;;;;;2603467;54;20058;31
2023/08/13 05:54:31;;;;;;;8.55;2.28;;;24.20;99.90;;;;;;2611891;39;20495;31
2023/08/13 05:57:07;;;;;;;;;;;24.20;99.90;;;;;;2603814;54;20852;31
2023/08/13 05:59:45;;;;;;;4.40;2.20;;;24.30;99.90;;;;;;2702024;39;21455;31
2023/08/13 06:02:18;;;;;;;3.33;2.05;;;24.60;99.90;;;;;;2603557;54;20422;31
2023/08/13 06:04:51;;;;;;;3.38;2.35;;;24.90;99.90;;;;;;2605242;54;20048;31
2023/08/13 06:07:29;;;;;;;2.60;1.90;;;25.20;99.90;;;;;;2604986;54;20034;31
2023/08/13 06:10:05;;;;;;;3.70;2.17;;;25.50;99.90;;;;;;2606057;54;20079;31
2023/08/13 06:12:43;;;;;;;6.70;2.40;;;25.80;99.90;;;;;;2611849;54;20022;31
2023/08/13 06:15:17;;;;;;;4.07;1.93;;;26.00;99.90;;;;;;2616440;54;20030;31
2023/08/13 06:17:51;;;;;;;6.03;2.17;;;26.30;99.90;;;;;;2615184;54;20045;31
2023/08/13 06:20:26;;;;;;;8.02;2.40;;;26.60;99.90;;;;;;2617506;54;20272;31
2023/08/13 06:23:04;;;;;;;5.27;2.17;;;26.80;99.90;;;;;;2628662;54;20517;31
2023/08/13 06:25:39;;;;;;;5.15;2.28;;;27.00;99.90;;;;;;2625367;46;20025;-78
2023/08/13 06:28:19;;;;;;;2.90;2.38;;;27.20;99.90;;;;;;2621601;54;20018;31
2023/08/13 06:30:53;;;;;;;3.92;2.60;;;27.30;99.90;;;;;;2631595;54;19985;-79
2023/08/13 06:33:27;;;;;;;3.90;2.20;;;27.50;99.90;;;;;;2619389;54;20018;31
2023/08/13 06:36:00;;;;;;;4.65;2.10;;;27.70;99.90;;;;;;2631501;54;20014;-77
2023/08/13 06:38:36;;;;;;;2.88;2.00;;;27.80;99.90;;;;;;2619674;54;20031;31
2023/08/13 06:41:10;;;;;;;6.22;2.55;;;28.00;99.90;;;;;;2617553;46;20049;31
2023/08/13 06:43:49;;;;;;;2.17;1.98;;;28.20;99.90;;;;;;2617731;54;20869;31
2023/08/13 06:46:24;;;;;;;3.50;2.17;;;28.40;99.90;;;;;;2610793;54;20018;31
2023/08/13 06:49:02;;;;;;;4.07;2.33;;;28.60;99.90;;;;;;2630983;54;20030;-78
2023/08/13 06:51:33;;;;;;;3.28;2.30;;;28.60;99.90;;;;;;2624003;54;20046;31
2023/08/13 06:54:12;;;;;;;3.13;2.40;;;28.70;99.90;;;;;;2614405;46;20026;31
2023/08/13 06:56:49;;;;;;;3.38;1.83;;;28.90;99.90;;;;;;2618178;54;20010;-76
2023/08/13 06:59:25;;;;;;;3.38;2.30;;;29.00;99.90;;;;;;2612608;54;20430;31
2023/08/13 07:02:01;;;;;;;3.03;1.87;;;29.20;99.90;;;;;;2611797;54;20023;31
2023/08/13 07:04:39;;;;;;;5.03;1.83;;;29.30;99.90;;;;;;2609522;54;20027;31
2023/08/13 07:07:15;;;;;;;2.53;2.10;;;29.50;99.90;;;;;;2613714;54;20874;31
2023/08/13 07:09:51;;;;;;;2.50;2.10;;;29.60;99.90;;;;;;2609662;54;20608;31
2023/08/13 07:12:25;;;;;;;;;;;29.80;99.90;;;;;;2616132;54;20019;31
2023/08/13 07:15:03;;;;;;;2.58;2.38;;;29.90;99.90;;;;;;2609987;54;20901;31
2023/08/13 07:17:41;;;;;;;2.42;2.10;;;30.00;99.90;;;;;;2619973;54;20092;31
2023/08/13 07:20:16;;;;;;;2.60;2.20;;;30.10;99.90;;;;;;2610522;54;20520;31
2023/08/13 07:22:58;;;;;;;2.72;2.10;;;30.20;99.90;;;;;;2610788;54;20078;31
2023/08/13 07:25:36;;;;;;;4.90;2.55;;;30.30;99.90;;;;;;2616276;54;19935;31
2023/08/13 07:30:45;;;;;;;6.13;2.10;;;30.30;99.90;;;;;;2613738;46;20096;31
2023/08/13 07:33:21;;;;;;;2.70;2.30;;;30.40;99.90;;;;;;2612239;54;21018;-79
2023/08/13 07:35:58;;;;;;;3.90;2.10;;;30.30;99.90;;;;;;2621253;54;20030;31
2023/08/13 07:38:33;;;;;;;4.47;2.13;;;29.80;99.90;;;;;;2630806;54;20039;-80
2023/08/13 07:41:06;;;;;;;4.50;2.33;;;29.60;99.90;;;;;;2618067;54;20073;31
2023/08/13 07:43:42;;;;;;;4.72;1.92;;;29.70;99.90;;;;;;2621544;54;20070;31
2023/08/13 07:46:15;;;;;;;;;;;29.90;99.90;;;;;;2613089;54;20031;31
2023/08/13 07:48:55;;;;;;;3.38;1.90;;;30.20;99.90;;;;;;2618345;54;20652;31
2023/08/13 07:51:28;;;;;;;3.20;1.85;;;30.40;99.90;;;;;;2607086;54;21311;31
2023/08/13 07:54:03;;;;;;;2.25;1.83;;;30.70;99.90;;;;;;2612826;54;20498;31
2023/08/13 07:56:36;;;;;;;2.53;1.45;;;30.90;99.90;;;;;;2604620;54;20088;31
2023/08/13 07:59:14;;;;;;;5.43;1.80;;;31.10;99.90;;;;;;2613673;54;20015;31
2023/08/13 08:01:53;;;;;;;2.10;1.70;;;31.40;99.90;;;;;;2613811;47;20026;31
2023/08/13 08:04:31;;;;;;;6.22;1.70;;;31.50;99.90;;;;;;2617545;54;20112;31
2023/08/13 08:07:04;;;;;;;2.35;1.35;;;31.50;99.90;;;;;;2614295;54;21152;31
2023/08/13 08:09:43;;;;;;;2.00;1.50;;;31.30;99.90;;;;;;2615002;54;20031;31
2023/08/13 08:12:15;;;;;;;1.83;1.53;;;31.40;99.90;;;;;;2615484;54;20078;-79
2023/08/13 08:14:53;;;;;;;2.40;1.80;;;31.60;99.90;;;;;;2607246;54;20120;31
2023/08/13 08:17:28;;;;;;;1.75;1.40;;;31.90;99.90;;;;;;2602338;54;20047;31
2023/08/13 08:20:08;;;;;;;3.20;1.48;;;32.00;99.90;;;;;;2611067;54;20030;31
2023/08/13 08:22:44;;;;;;;4.35;1.30;;;32.10;99.90;;;;;;2614032;39;20942;31
2023/08/13 08:25:17;;;;;;;1.30;1.20;;;32.20;99.90;;;;;;2616603;47;20026;31
2023/08/13 08:27:55;;;;;;;2.13;1.60;;;32.10;99.90;;;;;;2614560;54;20092;-80
2023/08/13 08:30:29;;;;;;;1.50;1.40;;;32.40;99.90;;;;;;2614910;46;20026;-82
2023/08/13 08:33:01;;;;;;;1.45;1.27;;;32.50;99.90;;;;;;2620037;54;20023;-80
2023/08/13 08:35:39;;;;;;;1.63;1.23;;;32.50;99.90;;;;;;2619399;54;20023;31
2023/08/13 08:38:14;;;;;;;1.80;1.23;;;32.60;99.90;;;;;;2616013;54;20019;31
2023/08/13 08:40:51;;;;;;;2.03;1.23;;;32.70;99.90;;;;;;2617859;54;20018;31
2023/08/13 08:43:31;;;;;;;2.95;1.00;;;32.90;99.90;;;;;;2621123;54;20032;-78
2023/08/13 08:46:04;;;;;;;2.08;1.05;;;33.20;99.90;;;;;;2631966;54;20094;-80
2023/08/13 08:48:38;;;;;;;1.77;1.30;;;33.30;99.90;;;;;;2631670;54;20025;-79
2023/08/13 08:51:17;;;;;;;3.22;1.40;;;33.50;99.90;;;;;;2631621;54;20049;-79
2023/08/13 08:53:49;;;;;;;2.05;1.25;;;33.50;99.90;;;;;;2636654;46;20080;-79
2023/08/13 08:56:30;;;;;;;2.88;1.25;;;33.40;99.90;;;;;;2631521;54;20073;-79
2023/08/13 08:59:05;;;;;;;1.55;0.95;;;33.00;99.90;;;;;;2631843;54;20079;-78
2023/08/13 09:01:44;;;;;;;;;;;32.80;99.90;;;;;;2631659;54;20078;-79
2023/08/13 09:04:27;;;;;;;2.65;1.10;;;32.90;99.90;;;;;;2631693;54;20429;-79
2023/08/13 09:07:06;;;;;;;3.40;1.55;;;33.00;99.90;;;;;;2631560;54;20528;-80
2023/08/13 09:09:41;;;;;;;2.78;1.40;;;33.10;99.90;;;;;;2627307;54;20037;31
2023/08/13 09:12:14;;;;;;;16.83;3.38;;;33.00;99.90;;;;;;2631744;54;20019;-79
2023/08/13 09:14:51;;;;;;;1.90;1.33;;;32.90;99.90;;;;;;2631592;54;20015;-80
2023/08/13 09:17:27;;;;;;;2.83;1.40;;;32.50;99.90;;;;;;2618307;39;20710;31
2023/08/13 09:20:03;;;;;;;1.70;1.30;;;32.30;99.90;;;;;;2615250;54;20050;-79
2023/08/13 09:22:41;;;;;;;1.60;1.33;;;32.30;99.90;;;;;;2631524;54;20034;-80
2023/08/13 09:25:19;;;;;;;2.10;1.27;;;32.40;99.90;;;;;;2626412;54;20052;-82
2023/08/13 09:27:53;;;;;;;1.40;1.30;;;32.70;99.90;;;;;;2631725;54;20031;-81
2023/08/13 09:30:31;;;;;;;1.17;1.08;;;32.90;99.90;;;;;;2628487;46;20093;31
2023/08/13 09:33:05;;;;;;;1.92;0.90;;;32.70;99.90;;;;;;2631875;54;20035;-79
2023/08/13 09:38:15;;;;;;;2.47;1.02;;;32.50;99.90;;;;;;2625153;54;20075;-78
2023/08/13 09:40:48;;;;;;;0.77;0.70;;;32.70;99.90;;;;;;2638457;31;20551;-79
2023/08/13 09:43:23;;;;;;;2.45;0.90;;;32.80;99.90;;;;;;2631621;54;20019;-78
2023/08/13 09:45:56;;;;;;;1.50;0.90;;;32.90;99.90;;;;;;2632222;46;20564;-78
2023/08/13 09:48:30;;;;;;;5.20;1.02;;;33.00;99.90;;;;;;2611850;54;20789;31
2023/08/13 09:51:07;;;;;;;1.42;1.05;;;32.90;99.90;;;;;;2624554;54;20030;31
2023/08/13 09:53:44;;;;;;;2.03;1.05;;;32.80;99.90;;;;;;2623326;54;20031;31
2023/08/13 09:56:17;;;;;;;2.45;1.27;;;32.90;99.90;;;;;;2662885;39;20293;31
2023/08/13 09:58:50;;;;;;;1.90;1.15;;;32.90;99.90;;;;;;2616543;54;20037;31
2023/08/13 10:01:25;;;;;;;1.40;1.25;;;32.80;99.90;;;;;;2614061;54;20046;31
2023/08/13 10:04:02;;;;;;;1.83;1.50;;;32.70;99.90;;;;;;2616595;54;20029;31
2023/08/13 10:06:37;;;;;;;3.25;1.30;;;32.70;99.90;;;;;;2603490;54;21365;31
2023/08/13 10:09:16;;;;;;;2.25;1.40;;;32.50;99.90;;;;;;2607225;54;20031;31
2023/08/13 10:11:51;;;;;;;2.57;1.30;;;32.50;99.90;;;;;;2603533;54;20023;31
2023/08/13 10:14:28;;;;;;;3.75;1.60;;;32.60;99.90;;;;;;2606225;54;20247;31
2023/08/13 10:17:05;;;;;;;2.00;1.45;;;32.80;99.90;;;;;;2607817;54;22287;31
2023/08/13 10:19:40;;;;;;;2.85;1.35;;;32.90;99.90;;;;;;2605808;54;20092;31
2023/08/13 10:22:14;;;;;;;3.55;1.50;;;33.00;99.90;;;;;;2614189;54;20106;31
2023/08/13 10:24:53;;;;;;;2.15;1.05;;;33.00;99.90;;;;;;2620415;46;20025;31
2023/08/13 10:27:26;;;;;;;3.65;1.50;;;33.10;99.90;;;;;;2605076;54;22163;31
2023/08/13 10:30:16;;;;;;;3.10;1.20;;;33.30;99.90;;;;;;2606824;54;20094;-81
2023/08/13 10:32:54;;;;;;;4.15;1.33;;;33.40;99.90;;;;;;2605618;54;20931;-83
2023/08/13 10:35:37;;;;;;;4.88;1.40;;;33.30;99.90;;;;;;2705497;39;21436;31
2023/08/13 10:38:15;;;;;;;2.33;1.20;;;33.30;99.90;;;;;;2611336;54;20022;31
2023/08/13 10:41:03;;;;;;;1.63;1.20;;;33.30;99.90;;;;;;2605367;54;20598;31
2023/08/13 10:43:38;;;;;;;1.65;1.38;;;33.10;99.90;;;;;;2610455;54;20021;31
2023/08/13 10:46:15;;;;;;;2.03;1.50;;;33.10;99.90;;;;;;2609850;54;20022;31
2023/08/13 10:48:48;;;;;;;1.90;1.60;;;33.00;99.90;;;;;;2603979;54;20022;31
2023/08/13 10:51:27;;;;;;;4.43;1.50;;;32.90;99.90;;;;;;2602401;54;20033;31
2023/08/13 10:54:01;;;;;;;2.13;1.42;;;33.10;99.90;;;;;;2604936;54;20049;31
2023/08/13 10:56:42;;;;;;;5.07;1.60;;;33.20;99.90;;;;;;2604526;46;20044;31
2023/08/13 10:59:17;;;;;;;2.35;1.65;;;33.20;99.90;;;;;;2605082;54;21251;31
2023/08/13 11:02:16;;;;;;;4.80;1.52;;;33.30;99.90;;;;;;2615707;54;20062;31
2023/08/13 11:04:56;;;;;;;1.95;1.30;;;33.30;99.90;;;;;;2608344;54;20407;31
2023/08/13 11:07:31;;;;;;;;;;;33.40;99.90;;;;;;2609664;54;20034;31
2023/08/13 11:10:24;;;;;;;2.30;1.25;;;33.40;99.90;;;;;;2612231;54;20295;31
2023/08/13 11:13:04;;;;;;;2.25;1.30;;;33.20;99.90;;;;;;2606374;54;20019;31
2023/08/13 11:15:40;;;;;;;3.78;1.20;;;33.00;99.90;;;;;;2615979;54;19930;31
2023/08/13 11:18:14;;;;;;;2.35;1.10;;;32.90;99.90;;;;;;2612751;54;20434;31
2023/08/13 11:20:50;;;;;;;3.63;1.48;;;33.00;99.90;;;;;;2605359;54;20099;31
2023/08/13 11:23:25;;;;;;;1.30;1.20;;;33.00;99.90;;;;;;2603411;54;20031;31
2023/08/13 11:26:00;;;;;;;1.35;1.17;;;32.90;99.90;;;;;;2602388;54;20835;31
2023/08/13 11:28:57;;;;;;;2.60;1.45;;;32.90;99.90;;;;;;2603147;54;20122;31
2023/08/13 11:31:32;;;;;;;2.33;1.55;;;32.90;99.90;;;;;;2603616;54;20022;31
2023/08/13 11:34:09;;;;;;;6.30;1.50;;;32.90;99.90;;;;;;2701945;39;20404;31
2023/08/13 11:36:44;;;;;;;1.50;1.27;;;32.90;99.90;;;;;;2603207;54;19935;31
2023/08/13 11:39:22;;;;;;;2.55;1.50;;;32.90;99.90;;;;;;2621590;46;20034;31
2023/08/13 11:42:03;;;;;;;2.53;1.60;;;32.70;99.90;;;;;;2603236;54;20026;31
2023/08/13 11:44:42;;;;;;;3.75;1.58;;;32.60;99.90;;;;;;2604935;31;20061;31
2023/08/13 11:47:16;;;;;;;2.53;1.55;;;32.60;99.90;;;;;;2603143;54;20847;31
2023/08/13 11:49:59;;;;;;;2.45;1.50;;;32.70;99.90;;;;;;2602974;54;20023;31
2023/08/13 11:52:37;;;;;;;3.15;2.95;;;32.60;99.90;;;;;;2611084;54;20029;31
2023/08/13 11:55:13;;;;;;;39.63;3.83;;;32.50;99.90;;;;;;2607038;47;20023;31
2023/08/13 11:57:52;;;;;;;2.22;1.60;;;32.50;99.90;;;;;;2602674;54;20767;31
2023/08/13 12:00:44;;;;;;;1.45;1.20;;;32.40;99.90;;;;;;2606607;54;20015;31
2023/08/13 12:03:20;;;;;;;2.50;1.50;;;32.20;99.90;;;;;;2613637;54;20025;31
2023/08/13 12:05:57;;;;;;;1.95;1.50;;;32.10;99.90;;;;;;2611820;54;20021;31
2023/08/13 12:08:35;;;;;;;2.30;1.60;;;32.00;99.90;;;;;;2614178;54;20112;31
2023/08/13 12:11:08;;;;;;;2.70;1.80;;;32.10;99.90;;;;;;2622251;46;20056;31
2023/08/13 12:13:45;;;;;;;2.10;1.90;;;32.10;99.90;;;;;;2603977;54;20022;31
2023/08/13 12:16:30;;;;;;;1.48;1.20;;;32.10;99.90;;;;;;2603824;54;20059;31
2023/08/13 12:19:12;;;;;;;1.67;1.13;;;32.10;99.90;;;;;;2607692;54;20847;31
2023/08/13 12:21:50;;;;;;;3.07;1.40;;;32.10;99.90;;;;;;2611594;54;20019;31
2023/08/13 12:24:23;;;;;;;1.33;1.20;;;32.00;99.90;;;;;;2622039;39;20479;31
2023/08/13 12:26:58;;;;;;;1.52;1.15;;;32.00;99.90;;;;;;2607380;54;20030;31
2023/08/13 12:29:34;;;;;;;4.75;1.05;;;31.90;99.90;;;;;;2603757;54;20025;31
2023/08/13 12:32:15;;;;;;;1.40;1.00;;;31.70;99.90;;;;;;2605032;54;20075;31
2023/08/13 12:34:53;;;;;;;4.17;1.40;;;31.70;99.90;;;;;;2605962;54;20053;31
2023/08/13 12:37:28;;;;;;;3.33;2.53;;;31.70;99.90;;;;;;2631195;46;20883;31
2023/08/13 12:40:02;;;;;;;;;;;31.70;99.90;;;;;;2630165;46;20026;31
2023/08/13 12:42:38;;;;;;;2.58;1.60;;;31.80;99.90;;;;;;2607720;46;19931;31
2023/08/13 12:45:15;;;;;;;1.35;1.23;;;31.70;99.90;;;;;;2615606;54;20026;31
2023/08/13 12:47:53;;;;;;;2.65;1.20;;;31.50;99.90;;;;;;2610365;54;20113;31
2023/08/13 12:50:28;;;;;;;2.30;1.45;;;31.40;99.90;;;;;;2603754;54;20832;31
2023/08/13 12:53:03;;;;;;;4.30;1.25;;;31.30;99.90;;;;;;2604357;54;20079;31
2023/08/13 12:55:38;;;;;;;1.80;1.10;;;31.20;99.90;;;;;;2603773;54;20022;31
2023/08/13 12:58:16;;;;;;;4.05;1.05;;;31.20;99.90;;;;;;2604112;46;20112;31
2023/08/13 13:00:57;;;;;;;1.70;1.30;;;31.10;99.90;;;;;;2610826;54;20886;31
2023/08/13 13:03:37;;;;;;;1.73;1.50;;;31.10;99.90;;;;;;2611125;54;20026;31
2023/08/13 13:06:10;;;;;;;8.07;1.88;;;31.20;99.90;;;;;;2617754;54;20022;31
2023/08/13 13:08:47;;;;;;;3.80;1.33;;;31.30;99.90;;;;;;2617472;54;20045;31
2023/08/13 13:11:22;;;;;;;3.40;0.80;;;31.40;99.90;;;;;;2702161;39;21363;31
2023/08/13 13:14:01;;;;;;;3.87;1.20;;;31.30;99.90;;;;;;2608953;54;20860;31
2023/08/13 13:16:38;;;;;;;1.67;1.20;;;31.20;99.90;;;;;;2632712;31;21351;31
2023/08/13 13:19:14;;;;;;;1.40;1.20;;;31.10;99.90;;;;;;2603667;54;20022;31
2023/08/13 13:21:50;;;;;;;1.48;1.02;;;31.00;99.90;;;;;;2603428;54;20108;31
2023/08/13 13:24:26;;;;;;;1.60;1.20;;;31.00;99.90;;;;;;2603728;54;20022;31
2023/08/13 13:27:05;;;;;;;2.35;1.25;;;30.90;99.90;;;;;;2603210;54;20916;31
2023/08/13 13:29:45;;;;;;;2.70;1.20;;;30.90;99.90;;;;;;2603701;54;20050;31
2023/08/13 13:32:24;;;;;;;1.63;1.10;;;30.80;99.90;;;;;;2603404;54;20026;31
2023/08/13 13:35:07;;;;;;;2.95;1.20;;;30.80;99.90;;;;;;2603528;54;20823;31
2023/08/13 13:37:43;;;;;;;1.63;0.90;;;30.60;99.90;;;;;;2702007;39;20419;31
2023/08/13 13:40:18;;;;;;;1.38;1.20;;;30.60;99.90;;;;;;2604379;46;20027;31
2023/08/13 13:42:57;;;;;;;2.00;1.77;;;30.60;99.90;;;;;;2622246;46;20071;31
2023/08/13 13:45:33;;;;;;;1.65;1.20;;;30.50;99.90;;;;;;2602773;54;20111;31
2023/08/13 13:48:08;;;;;;;1.50;1.40;;;30.40;99.90;;;;;;2606017;46;20843;31
2023/08/13 13:50:48;;;;;;;1.20;1.10;;;30.40;99.90;;;;;;2603563;54;20088;31
2023/08/13 13:53:22;;;;;;;2.58;1.20;;;30.30;99.90;;;;;;2621988;46;20030;31
2023/08/13 13:55:56;;;;;;;1.70;1.40;;;30.30;99.90;;;;;;2603580;54;20100;31